sensor_id;sensor_type;location;lat;lon;timestamp;P1;durP1;ratioP1;P2;durP2;ratioP2
53207;SDS011;39093;52.788;6.940;2023-06-01T02:09:21;6.20;;;3.42;;
53207;SDS011;39093;52.788;6.940;2023-06-01T02:11:49;12.25;;;3.90;;
53207;SDS011;39093;52.788;6.940;2023-06-01T02:14:15;8.60;;;3.63;;
53207;SDS011;39093;52.788;6.940;2023-06-01T02:16:42;7.75;;;4.20;;
53207;SDS011;39093;52.788;6.940;2023-06-01T02:19:11;11.77;;;3.90;;
53207;SDS011;39093;52.788;6.940;2023-06-01T02:21:38;9.85;;;4.38;;
53207;SDS011;39093;52.788;6.940;2023-06-01T02:24:05;9.77;;;4.00;;
53207;SDS011;39093;52.788;6.940;2023-06-01T02:26:33;12.30;;;3.97;;
53207;SDS011;39093;52.788;6.940;2023-06-01T02:29:01;15.02;;;4.30;;
53207;SDS011;39093;52.788;6.940;2023-06-01T02:31:29;14.32;;;5.00;;
53207;SDS011;39093;52.788;6.940;2023-06-01T02:33:56;12.13;;;4.45;;
53207;SDS011;39093;52.788;6.940;2023-06-01T02:36:23;9.93;;;4.03;;
53207;SDS011;39093;52.788;6.940;2023-06-01T02:38:51;13.27;;;4.18;;
53207;SDS011;39093;52.788;6.940;2023-06-01T02:41:22;10.82;;;4.22;;
53207;SDS011;39093;52.788;6.940;2023-06-01T02:43:49;8.48;;;3.78;;
53207;SDS011;39093;52.788;6.940;2023-06-01T02:46:19;9.27;;;3.80;;
53207;SDS011;39093;52.788;6.940;2023-06-01T02:48:46;12.93;;;4.45;;
53207;SDS011;39093;52.788;6.940;2023-06-01T02:51:13;14.85;;;4.35;;
53207;SDS011;39093;52.788;6.940;2023-06-01T02:53:40;14.32;;;4.75;;
53207;SDS011;39093;52.788;6.940;2023-06-01T02:56:07;12.63;;;3.80;;
53207;SDS011;39093;52.788;6.940;2023-06-01T02:58:35;15.27;;;3.97;;
53207;SDS011;39093;52.788;6.940;2023-06-01T03:01:02;10.05;;;3.88;;
53207;SDS011;39093;52.788;6.940;2023-06-01T03:03:29;10.13;;;4.13;;
53207;SDS011;39093;52.788;6.940;2023-06-01T03:05:57;10.98;;;3.72;;
53207;SDS011;39093;52.788;6.940;2023-06-01T03:08:24;7.63;;;4.15;;
53207;SDS011;39093;52.788;6.940;2023-06-01T03:10:53;8.73;;;3.85;;
53207;SDS011;39093;52.788;6.940;2023-06-01T03:13:20;17.42;;;3.70;;
53207;SDS011;39093;52.788;6.940;2023-06-01T03:15:47;10.23;;;3.58;;
53207;SDS011;39093;52.788;6.940;2023-06-01T03:18:14;8.57;;;3.58;;
53207;SDS011;39093;52.788;6.940;2023-06-01T03:20:42;6.80;;;4.05;;
53207;SDS011;39093;52.788;6.940;2023-06-01T03:23:10;14.90;;;3.72;;
53207;SDS011;39093;52.788;6.940;2023-06-01T03:25:37;10.10;;;3.78;;
53207;SDS011;39093;52.788;6.940;2023-06-01T03:28:04;11.00;;;3.50;;
53207;SDS011;39093;52.788;6.940;2023-06-01T03:30:32;8.68;;;3.67;;
53207;SDS011;39093;52.788;6.940;2023-06-01T03:32:58;9.73;;;3.80;;
53207;SDS011;39093;52.788;6.940;2023-06-01T03:35:26;10.18;;;3.70;;
53207;SDS011;39093;52.788;6.940;2023-06-01T03:37:53;10.68;;;4.30;;
53207;SDS011;39093;52.788;6.940;2023-06-01T03:40:20;10.20;;;4.15;;
53207;SDS011;39093;52.788;6.940;2023-06-01T03:42:47;15.88;;;3.75;;
53207;SDS011;39093;52.788;6.940;2023-06-01T03:45:15;10.32;;;4.32;;
53207;SDS011;39093;52.788;6.940;2023-06-01T03:47:43;13.35;;;3.92;;
53207;SDS011;39093;52.788;6.940;2023-06-01T03:50:10;10.30;;;4.03;;
53207;SDS011;39093;52.788;6.940;2023-06-01T03:52:37;9.43;;;3.70;;
53207;SDS011;39093;52.788;6.940;2023-06-01T03:55:05;11.07;;;3.50;;
53207;SDS011;39093;52.788;6.940;2023-06-01T03:57:37;12.82;;;3.65;;
53207;SDS011;39093;52.788;6.940;2023-06-01T04:00:04;8.85;;;4.20;;
53207;SDS011;39093;52.788;6.940;2023-06-01T04:02:51;13.45;;;3.22;;
53207;SDS011;39093;52.788;6.940;2023-06-01T04:05:23;12.43;;;4.07;;
53207;SDS011;39093;52.788;6.940;2023-06-01T04:07:53;11.82;;;4.03;;
53207;SDS011;39093;52.788;6.940;2023-06-01T04:10:21;8.30;;;3.20;;
53207;SDS011;39093;52.788;6.940;2023-06-01T04:12:48;13.00;;;3.63;;
53207;SDS011;39093;52.788;6.940;2023-06-01T04:15:17;8.45;;;2.97;;
53207;SDS011;39093;52.788;6.940;2023-06-01T04:17:45;11.98;;;3.58;;
53207;SDS011;39093;52.788;6.940;2023-06-01T04:20:13;7.00;;;3.03;;
53207;SDS011;39093;52.788;6.940;2023-06-01T04:22:42;6.32;;;2.78;;
53207;SDS011;39093;52.788;6.940;2023-06-01T04:25:13;15.82;;;3.95;;
53207;SDS011;39093;52.788;6.940;2023-06-01T04:27:51;16.23;;;3.53;;
53207;SDS011;39093;52.788;6.940;2023-06-01T04:30:18;10.50;;;3.20;;
53207;SDS011;39093;52.788;6.940;2023-06-01T04:32:46;7.18;;;2.95;;
53207;SDS011;39093;52.788;6.940;2023-06-01T04:35:15;9.18;;;2.92;;
53207;SDS011;39093;52.788;6.940;2023-06-01T04:37:42;13.30;;;3.30;;
53207;SDS011;39093;52.788;6.940;2023-06-01T04:40:10;10.00;;;3.65;;
53207;SDS011;39093;52.788;6.940;2023-06-01T04:42:40;12.23;;;3.35;;
53207;SDS011;39093;52.788;6.940;2023-06-01T04:45:11;7.78;;;3.35;;
53207;SDS011;39093;52.788;6.940;2023-06-01T04:47:40;9.35;;;3.53;;
53207;SDS011;39093;52.788;6.940;2023-06-01T04:50:07;9.38;;;3.70;;
53207;SDS011;39093;52.788;6.940;2023-06-01T04:52:36;7.72;;;3.30;;
53207;SDS011;39093;52.788;6.940;2023-06-01T04:55:04;8.00;;;3.20;;
53207;SDS011;39093;52.788;6.940;2023-06-01T04:57:33;9.05;;;2.75;;
53207;SDS011;39093;52.788;6.940;2023-06-01T05:00:08;10.30;;;2.67;;
53207;SDS011;39093;52.788;6.940;2023-06-01T05:02:39;12.93;;;3.35;;
53207;SDS011;39093;52.788;6.940;2023-06-01T05:05:07;13.23;;;3.17;;
53207;SDS011;39093;52.788;6.940;2023-06-01T05:07:35;5.63;;;2.95;;
53207;SDS011;39093;52.788;6.940;2023-06-01T05:10:03;6.78;;;2.45;;
53207;SDS011;39093;52.788;6.940;2023-06-01T05:12:32;8.95;;;2.88;;
53207;SDS011;39093;52.788;6.940;2023-06-01T05:15:01;7.10;;;3.20;;
53207;SDS011;39093;52.788;6.940;2023-06-01T05:17:31;5.18;;;2.10;;
53207;SDS011;39093;52.788;6.940;2023-06-01T05:19:58;7.07;;;2.58;;
53207;SDS011;39093;52.788;6.940;2023-06-01T05:22:26;6.55;;;2.50;;
53207;SDS011;39093;52.788;6.940;2023-06-01T05:24:53;5.38;;;2.58;;
53207;SDS011;39093;52.788;6.940;2023-06-01T05:27:20;9.15;;;2.58;;
53207;SDS011;39093;52.788;6.940;2023-06-01T05:29:47;4.20;;;2.95;;
53207;SDS011;39093;52.788;6.940;2023-06-01T05:32:14;5.50;;;2.65;;
53207;SDS011;39093;52.788;6.940;2023-06-01T05:34:42;6.63;;;2.35;;
53207;SDS011;39093;52.788;6.940;2023-06-01T05:37:09;7.60;;;2.92;;
53207;SDS011;39093;52.788;6.940;2023-06-01T05:39:36;7.20;;;3.22;;
53207;SDS011;39093;52.788;6.940;2023-06-01T05:42:03;7.78;;;2.90;;
53207;SDS011;39093;52.788;6.940;2023-06-01T05:44:31;11.13;;;3.03;;
53207;SDS011;39093;52.788;6.940;2023-06-01T05:46:58;5.43;;;2.90;;
53207;SDS011;39093;52.788;6.940;2023-06-01T05:49:26;9.77;;;2.72;;
53207;SDS011;39093;52.788;6.940;2023-06-01T05:51:57;6.45;;;2.70;;
53207;SDS011;39093;52.788;6.940;2023-06-01T05:54:24;6.55;;;3.33;;
53207;SDS011;39093;52.788;6.940;2023-06-01T05:56:51;7.85;;;3.28;;
53207;SDS011;39093;52.788;6.940;2023-06-01T05:59:19;6.10;;;2.75;;
53207;SDS011;39093;52.788;6.940;2023-06-01T06:01:46;12.45;;;3.42;;
53207;SDS011;39093;52.788;6.940;2023-06-01T06:04:15;7.97;;;3.50;;
53207;SDS011;39093;52.788;6.940;2023-06-01T06:06:42;8.45;;;3.42;;
53207;SDS011;39093;52.788;6.940;2023-06-01T06:09:09;6.88;;;2.90;;
53207;SDS011;39093;52.788;6.940;2023-06-01T06:11:38;13.73;;;3.80;;
53207;SDS011;39093;52.788;6.940;2023-06-01T06:14:06;4.55;;;3.28;;
53207;SDS011;39093;52.788;6.940;2023-06-01T06:16:33;11.32;;;3.95;;
53207;SDS011;39093;52.788;6.940;2023-06-01T06:19:00;7.20;;;3.25;;
53207;SDS011;39093;52.788;6.940;2023-06-01T06:21:27;8.63;;;3.30;;
53207;SDS011;39093;52.788;6.940;2023-06-01T06:23:55;8.02;;;3.70;;
53207;SDS011;39093;52.788;6.940;2023-06-01T06:26:25;14.57;;;3.53;;
53207;SDS011;39093;52.788;6.940;2023-06-01T06:28:53;13.45;;;4.18;;
53207;SDS011;39093;52.788;6.940;2023-06-01T06:31:21;13.20;;;4.63;;
53207;SDS011;39093;52.788;6.940;2023-06-01T06:33:48;6.35;;;3.95;;
53207;SDS011;39093;52.788;6.940;2023-06-01T06:36:15;8.88;;;3.40;;
53207;SDS011;39093;52.788;6.940;2023-06-01T06:38:42;11.40;;;3.75;;
53207;SDS011;39093;52.788;6.940;2023-06-01T06:41:10;8.93;;;3.55;;
53207;SDS011;39093;52.788;6.940;2023-06-01T06:43:37;10.93;;;3.42;;
53207;SDS011;39093;52.788;6.940;2023-06-01T06:46:04;11.27;;;2.58;;
53207;SDS011;39093;52.788;6.940;2023-06-01T06:48:31;6.38;;;2.60;;
53207;SDS011;39093;52.788;6.940;2023-06-01T06:50:58;11.43;;;2.55;;
53207;SDS011;39093;52.788;6.940;2023-06-01T06:53:25;4.68;;;2.22;;
53207;SDS011;39093;52.788;6.940;2023-06-01T06:55:52;5.95;;;2.50;;
53207;SDS011;39093;52.788;6.940;2023-06-01T06:58:19;7.47;;;2.60;;
53207;SDS011;39093;52.788;6.940;2023-06-01T07:00:46;8.30;;;2.50;;
53207;SDS011;39093;52.788;6.940;2023-06-01T07:03:13;4.82;;;2.53;;
53207;SDS011;39093;52.788;6.940;2023-06-01T07:05:40;5.70;;;2.97;;
53207;SDS011;39093;52.788;6.940;2023-06-01T07:08:07;2.75;;;1.98;;
53207;SDS011;39093;52.788;6.940;2023-06-01T07:10:34;8.88;;;2.45;;
53207;SDS011;39093;52.788;6.940;2023-06-01T07:13:01;4.53;;;2.47;;
53207;SDS011;39093;52.788;6.940;2023-06-01T07:15:27;4.78;;;2.05;;
53207;SDS011;39093;52.788;6.940;2023-06-01T07:17:54;18.38;;;7.45;;
53207;SDS011;39093;52.788;6.940;2023-06-01T07:20:22;5.38;;;2.35;;
53207;SDS011;39093;52.788;6.940;2023-06-01T07:22:49;5.60;;;2.35;;
53207;SDS011;39093;52.788;6.940;2023-06-01T07:25:16;6.78;;;2.65;;
53207;SDS011;39093;52.788;6.940;2023-06-01T07:27:43;4.45;;;1.80;;
53207;SDS011;39093;52.788;6.940;2023-06-01T07:30:10;4.53;;;1.95;;
53207;SDS011;39093;52.788;6.940;2023-06-01T07:32:38;5.90;;;1.60;;
53207;SDS011;39093;52.788;6.940;2023-06-01T07:35:06;4.85;;;2.00;;
53207;SDS011;39093;52.788;6.940;2023-06-01T07:37:34;8.63;;;1.90;;
53207;SDS011;39093;52.788;6.940;2023-06-01T07:40:01;4.25;;;1.48;;
53207;SDS011;39093;52.788;6.940;2023-06-01T07:42:31;5.00;;;1.77;;
53207;SDS011;39093;52.788;6.940;2023-06-01T07:44:58;2.88;;;1.55;;
53207;SDS011;39093;52.788;6.940;2023-06-01T07:47:25;5.35;;;1.52;;
53207;SDS011;39093;52.788;6.940;2023-06-01T07:49:52;5.40;;;2.70;;
53207;SDS011;39093;52.788;6.940;2023-06-01T07:52:19;3.67;;;1.63;;
53207;SDS011;39093;52.788;6.940;2023-06-01T07:54:49;2.15;;;1.00;;
53207;SDS011;39093;52.788;6.940;2023-06-01T07:57:16;2.75;;;1.55;;
53207;SDS011;39093;52.788;6.940;2023-06-01T07:59:43;3.42;;;1.27;;
53207;SDS011;39093;52.788;6.940;2023-06-01T08:02:10;1.30;;;1.00;;
53207;SDS011;39093;52.788;6.940;2023-06-01T08:04:38;4.28;;;1.05;;
53207;SDS011;39093;52.788;6.940;2023-06-01T08:07:05;3.10;;;1.33;;
53207;SDS011;39093;52.788;6.940;2023-06-01T08:09:34;3.75;;;1.20;;
53207;SDS011;39093;52.788;6.940;2023-06-01T08:12:04;3.70;;;1.35;;
53207;SDS011;39093;52.788;6.940;2023-06-01T08:14:32;3.45;;;1.45;;
53207;SDS011;39093;52.788;6.940;2023-06-01T08:17:01;3.17;;;1.20;;
53207;SDS011;39093;52.788;6.940;2023-06-01T08:19:28;3.90;;;1.10;;
53207;SDS011;39093;52.788;6.940;2023-06-01T08:21:56;2.88;;;0.90;;
53207;SDS011;39093;52.788;6.940;2023-06-01T08:24:23;1.23;;;0.82;;
53207;SDS011;39093;52.788;6.940;2023-06-01T08:26:55;1.77;;;1.00;;
53207;SDS011;39093;52.788;6.940;2023-06-01T08:29:25;1.70;;;0.93;;
53207;SDS011;39093;52.788;6.940;2023-06-01T08:32:07;11.63;;;6.78;;
53207;SDS011;39093;52.788;6.940;2023-06-01T08:34:34;3.20;;;1.30;;
53207;SDS011;39093;52.788;6.940;2023-06-01T08:37:01;4.40;;;1.13;;
53207;SDS011;39093;52.788;6.940;2023-06-01T08:39:28;3.08;;;0.90;;
53207;SDS011;39093;52.788;6.940;2023-06-01T08:42:03;1.65;;;1.27;;
53207;SDS011;39093;52.788;6.940;2023-06-01T08:44:40;2.78;;;1.20;;
53207;SDS011;39093;52.788;6.940;2023-06-01T08:47:08;2.60;;;1.50;;
53207;SDS011;39093;52.788;6.940;2023-06-01T08:49:36;5.00;;;1.65;;
53207;SDS011;39093;52.788;6.940;2023-06-01T08:52:07;5.80;;;1.60;;
53207;SDS011;39093;52.788;6.940;2023-06-01T08:54:38;1.67;;;1.27;;
53207;SDS011;39093;52.788;6.940;2023-06-01T08:57:05;2.58;;;1.30;;
53207;SDS011;39093;52.788;6.940;2023-06-01T08:59:36;3.25;;;1.70;;
53207;SDS011;39093;52.788;6.940;2023-06-01T09:02:05;2.65;;;1.02;;
53207;SDS011;39093;52.788;6.940;2023-06-01T09:04:33;5.38;;;1.33;;
53207;SDS011;39093;52.788;6.940;2023-06-01T09:07:08;5.30;;;1.27;;
53207;SDS011;39093;52.788;6.940;2023-06-01T09:09:35;2.28;;;1.23;;
53207;SDS011;39093;52.788;6.940;2023-06-01T09:12:25;3.35;;;0.98;;
53207;SDS011;39093;52.788;6.940;2023-06-01T09:17:39;2.30;;;1.08;;
53207;SDS011;39093;52.788;6.940;2023-06-01T09:20:11;2.63;;;1.20;;
53207;SDS011;39093;52.788;6.940;2023-06-01T09:22:42;3.20;;;1.10;;
53207;SDS011;39093;52.788;6.940;2023-06-01T09:25:13;2.67;;;0.95;;
53207;SDS011;39093;52.788;6.940;2023-06-01T09:27:42;1.35;;;1.13;;
53207;SDS011;39093;52.788;6.940;2023-06-01T09:30:09;3.90;;;1.50;;
53207;SDS011;39093;52.788;6.940;2023-06-01T09:32:37;1.15;;;0.98;;
53207;SDS011;39093;52.788;6.940;2023-06-01T09:35:04;3.72;;;1.02;;
53207;SDS011;39093;52.788;6.940;2023-06-01T09:37:34;2.28;;;1.38;;
53207;SDS011;39093;52.788;6.940;2023-06-01T09:40:15;5.68;;;1.30;;
53207;SDS011;39093;52.788;6.940;2023-06-01T09:42:45;2.40;;;1.13;;
53207;SDS011;39093;52.788;6.940;2023-06-01T09:45:18;1.10;;;0.93;;
53207;SDS011;39093;52.788;6.940;2023-06-01T09:47:47;3.20;;;1.20;;
53207;SDS011;39093;52.788;6.940;2023-06-01T09:53:02;2.55;;;1.00;;
53207;SDS011;39093;52.788;6.940;2023-06-01T09:55:32;2.53;;;1.10;;
53207;SDS011;39093;52.788;6.940;2023-06-01T09:58:19;2.25;;;1.30;;
53207;SDS011;39093;52.788;6.940;2023-06-01T10:00:50;3.10;;;1.25;;
53207;SDS011;39093;52.788;6.940;2023-06-01T10:03:18;4.53;;;1.35;;
53207;SDS011;39093;52.788;6.940;2023-06-01T10:05:46;1.90;;;0.93;;
53207;SDS011;39093;52.788;6.940;2023-06-01T10:08:15;1.92;;;0.70;;
53207;SDS011;39093;52.788;6.940;2023-06-01T10:10:45;2.67;;;1.00;;
53207;SDS011;39093;52.788;6.940;2023-06-01T10:13:14;1.77;;;1.17;;
53207;SDS011;39093;52.788;6.940;2023-06-01T10:15:41;3.47;;;1.00;;
53207;SDS011;39093;52.788;6.940;2023-06-01T10:18:08;3.90;;;1.27;;
53207;SDS011;39093;52.788;6.940;2023-06-01T10:20:36;2.45;;;1.20;;
53207;SDS011;39093;52.788;6.940;2023-06-01T10:23:04;3.58;;;1.58;;
53207;SDS011;39093;52.788;6.940;2023-06-01T10:25:43;2.00;;;1.25;;
53207;SDS011;39093;52.788;6.940;2023-06-01T10:28:13;3.50;;;1.35;;
53207;SDS011;39093;52.788;6.940;2023-06-01T10:30:42;5.22;;;1.10;;
53207;SDS011;39093;52.788;6.940;2023-06-01T10:33:09;5.15;;;1.92;;
53207;SDS011;39093;52.788;6.940;2023-06-01T10:40:37;6.25;;;2.05;;
53207;SDS011;39093;52.788;6.940;2023-06-01T10:43:54;5.90;;;2.20;;
53207;SDS011;39093;52.788;6.940;2023-06-01T10:49:03;7.45;;;2.30;;
53207;SDS011;39093;52.788;6.940;2023-06-01T10:51:31;6.35;;;2.35;;
53207;SDS011;39093;52.788;6.940;2023-06-01T11:00:07;13.48;;;2.78;;
53207;SDS011;39093;52.788;6.940;2023-06-01T11:05:40;6.35;;;2.40;;
53207;SDS011;39093;52.788;6.940;2023-06-01T11:13:21;7.55;;;2.92;;
53207;SDS011;39093;52.788;6.940;2023-06-01T11:21:11;7.53;;;2.85;;
53207;SDS011;39093;52.788;6.940;2023-06-01T11:23:43;7.43;;;2.42;;
53207;SDS011;39093;52.788;6.940;2023-06-01T11:26:13;6.72;;;2.40;;
53207;SDS011;39093;52.788;6.940;2023-06-01T11:28:42;10.10;;;2.85;;
53207;SDS011;39093;52.788;6.940;2023-06-01T11:31:10;10.90;;;2.60;;
53207;SDS011;39093;52.788;6.940;2023-06-01T11:33:41;6.80;;;2.03;;
53207;SDS011;39093;52.788;6.940;2023-06-01T11:36:24;10.43;;;2.65;;
53207;SDS011;39093;52.788;6.940;2023-06-01T11:38:52;10.23;;;2.28;;
53207;SDS011;39093;52.788;6.940;2023-06-01T11:41:22;11.60;;;2.20;;
53207;SDS011;39093;52.788;6.940;2023-06-01T11:43:56;20.50;;;3.33;;
53207;SDS011;39093;52.788;6.940;2023-06-01T11:46:23;7.55;;;2.13;;
53207;SDS011;39093;52.788;6.940;2023-06-01T11:49:00;11.80;;;2.22;;
53207;SDS011;39093;52.788;6.940;2023-06-01T11:51:33;8.57;;;2.08;;
53207;SDS011;39093;52.788;6.940;2023-06-01T11:54:05;7.72;;;2.58;;
53207;SDS011;39093;52.788;6.940;2023-06-01T11:56:33;12.68;;;2.40;;
53207;SDS011;39093;52.788;6.940;2023-06-01T11:59:03;8.45;;;2.53;;
53207;SDS011;39093;52.788;6.940;2023-06-01T12:01:35;11.15;;;2.28;;
53207;SDS011;39093;52.788;6.940;2023-06-01T12:04:14;6.88;;;2.38;;
53207;SDS011;39093;52.788;6.940;2023-06-01T12:06:43;6.47;;;2.60;;
53207;SDS011;39093;52.788;6.940;2023-06-01T12:09:12;9.10;;;2.15;;
53207;SDS011;39093;52.788;6.940;2023-06-01T12:11:41;16.05;;;2.25;;
53207;SDS011;39093;52.788;6.940;2023-06-01T12:14:11;6.70;;;1.80;;
53207;SDS011;39093;52.788;6.940;2023-06-01T12:16:58;5.70;;;2.05;;
53207;SDS011;39093;52.788;6.940;2023-06-01T12:19:29;9.02;;;2.17;;
53207;SDS011;39093;52.788;6.940;2023-06-01T12:21:58;6.72;;;2.25;;
53207;SDS011;39093;52.788;6.940;2023-06-01T12:24:26;7.00;;;2.75;;
53207;SDS011;39093;52.788;6.940;2023-06-01T12:26:55;4.60;;;2.22;;
53207;SDS011;39093;52.788;6.940;2023-06-01T12:29:36;6.00;;;2.40;;
53207;SDS011;39093;52.788;6.940;2023-06-01T12:32:14;7.28;;;2.03;;
53207;SDS011;39093;52.788;6.940;2023-06-01T12:34:45;5.63;;;2.42;;
53207;SDS011;39093;52.788;6.940;2023-06-01T12:37:29;5.03;;;2.00;;
53207;SDS011;39093;52.788;6.940;2023-06-01T12:39:57;11.40;;;2.60;;
53207;SDS011;39093;52.788;6.940;2023-06-01T12:42:36;5.97;;;2.10;;
53207;SDS011;39093;52.788;6.940;2023-06-01T12:45:07;8.88;;;2.40;;
53207;SDS011;39093;52.788;6.940;2023-06-01T12:47:38;4.78;;;2.30;;
53207;SDS011;39093;52.788;6.940;2023-06-01T12:50:07;11.00;;;2.17;;
53207;SDS011;39093;52.788;6.940;2023-06-01T12:52:36;7.30;;;2.10;;
53207;SDS011;39093;52.788;6.940;2023-06-01T12:55:03;5.55;;;2.10;;
53207;SDS011;39093;52.788;6.940;2023-06-01T12:57:32;9.70;;;2.05;;
53207;SDS011;39093;52.788;6.940;2023-06-01T13:00:00;9.20;;;2.33;;
53207;SDS011;39093;52.788;6.940;2023-06-01T13:02:28;6.05;;;1.90;;
53207;SDS011;39093;52.788;6.940;2023-06-01T13:04:56;9.23;;;2.38;;
53207;SDS011;39093;52.788;6.940;2023-06-01T13:07:25;6.78;;;2.20;;
53207;SDS011;39093;52.788;6.940;2023-06-01T13:09:52;6.20;;;1.70;;
53207;SDS011;39093;52.788;6.940;2023-06-01T13:12:19;7.22;;;2.10;;
53207;SDS011;39093;52.788;6.940;2023-06-01T13:14:46;7.25;;;2.03;;
53207;SDS011;39093;52.788;6.940;2023-06-01T13:17:14;10.25;;;2.22;;
53207;SDS011;39093;52.788;6.940;2023-06-01T13:19:44;11.75;;;1.88;;
53207;SDS011;39093;52.788;6.940;2023-06-01T13:22:12;9.13;;;1.80;;
53207;SDS011;39093;52.788;6.940;2023-06-01T13:24:40;6.22;;;1.80;;
53207;SDS011;39093;52.788;6.940;2023-06-01T13:27:24;5.15;;;1.83;;
53207;SDS011;39093;52.788;6.940;2023-06-01T13:29:51;3.05;;;1.70;;
53207;SDS011;39093;52.788;6.940;2023-06-01T13:32:18;6.35;;;1.80;;
53207;SDS011;39093;52.788;6.940;2023-06-01T13:34:45;8.25;;;2.00;;
53207;SDS011;39093;52.788;6.940;2023-06-01T13:37:12;8.05;;;2.10;;
53207;SDS011;39093;52.788;6.940;2023-06-01T13:39:39;7.75;;;1.90;;
53207;SDS011;39093;52.788;6.940;2023-06-01T13:42:06;7.18;;;1.95;;
53207;SDS011;39093;52.788;6.940;2023-06-01T13:44:33;4.95;;;1.95;;
53207;SDS011;39093;52.788;6.940;2023-06-01T13:47:00;8.85;;;2.40;;
53207;SDS011;39093;52.788;6.940;2023-06-01T13:49:28;12.85;;;2.30;;
53207;SDS011;39093;52.788;6.940;2023-06-01T13:51:55;5.38;;;1.90;;
53207;SDS011;39093;52.788;6.940;2023-06-01T13:54:22;9.60;;;1.95;;
53207;SDS011;39093;52.788;6.940;2023-06-01T13:56:49;6.10;;;2.30;;
53207;SDS011;39093;52.788;6.940;2023-06-01T13:59:16;8.90;;;2.08;;
53207;SDS011;39093;52.788;6.940;2023-06-01T14:01:43;10.73;;;2.22;;
53207;SDS011;39093;52.788;6.940;2023-06-01T14:04:10;4.07;;;1.63;;
53207;SDS011;39093;52.788;6.940;2023-06-01T14:06:38;9.57;;;2.17;;
53207;SDS011;39093;52.788;6.940;2023-06-01T14:09:05;9.82;;;2.30;;
53207;SDS011;39093;52.788;6.940;2023-06-01T14:11:32;7.45;;;2.28;;
53207;SDS011;39093;52.788;6.940;2023-06-01T14:13:58;5.38;;;1.73;;
53207;SDS011;39093;52.788;6.940;2023-06-01T14:16:26;3.05;;;1.90;;
53207;SDS011;39093;52.788;6.940;2023-06-01T14:18:53;4.97;;;1.60;;
53207;SDS011;39093;52.788;6.940;2023-06-01T14:21:20;5.60;;;1.88;;
53207;SDS011;39093;52.788;6.940;2023-06-01T14:23:48;7.35;;;2.10;;
53207;SDS011;39093;52.788;6.940;2023-06-01T14:26:15;7.35;;;1.98;;
53207;SDS011;39093;52.788;6.940;2023-06-01T14:28:41;5.93;;;2.05;;
53207;SDS011;39093;52.788;6.940;2023-06-01T14:31:08;8.25;;;2.00;;
53207;SDS011;39093;52.788;6.940;2023-06-01T14:33:35;8.20;;;2.00;;
53207;SDS011;39093;52.788;6.940;2023-06-01T14:36:03;5.03;;;2.30;;
53207;SDS011;39093;52.788;6.940;2023-06-01T14:38:31;7.28;;;2.08;;
53207;SDS011;39093;52.788;6.940;2023-06-01T14:40:58;5.45;;;2.20;;
53207;SDS011;39093;52.788;6.940;2023-06-01T14:43:25;12.52;;;2.45;;
53207;SDS011;39093;52.788;6.940;2023-06-01T14:45:52;10.15;;;2.38;;
53207;SDS011;39093;52.788;6.940;2023-06-01T14:48:19;7.45;;;1.83;;
53207;SDS011;39093;52.788;6.940;2023-06-01T14:50:46;7.32;;;1.95;;
53207;SDS011;39093;52.788;6.940;2023-06-01T14:53:14;7.57;;;2.20;;
53207;SDS011;39093;52.788;6.940;2023-06-01T14:55:41;5.85;;;2.05;;
53207;SDS011;39093;52.788;6.940;2023-06-01T14:58:09;8.70;;;2.80;;
53207;SDS011;39093;52.788;6.940;2023-06-01T15:00:36;9.18;;;1.95;;
53207;SDS011;39093;52.788;6.940;2023-06-01T15:03:08;6.07;;;2.30;;
53207;SDS011;39093;52.788;6.940;2023-06-01T15:05:35;7.78;;;2.08;;
53207;SDS011;39093;52.788;6.940;2023-06-01T15:08:04;8.40;;;2.22;;
53207;SDS011;39093;52.788;6.940;2023-06-01T15:10:32;9.13;;;1.92;;
53207;SDS011;39093;52.788;6.940;2023-06-01T15:12:59;15.02;;;2.00;;
53207;SDS011;39093;52.788;6.940;2023-06-01T15:15:27;6.90;;;2.22;;
53207;SDS011;39093;52.788;6.940;2023-06-01T15:17:54;4.13;;;1.98;;
53207;SDS011;39093;52.788;6.940;2023-06-01T15:20:21;6.25;;;2.03;;
53207;SDS011;39093;52.788;6.940;2023-06-01T15:22:48;4.90;;;1.80;;
53207;SDS011;39093;52.788;6.940;2023-06-01T15:25:15;5.50;;;1.88;;
53207;SDS011;39093;52.788;6.940;2023-06-01T15:27:45;6.78;;;1.85;;
53207;SDS011;39093;52.788;6.940;2023-06-01T15:30:12;9.93;;;2.17;;
53207;SDS011;39093;52.788;6.940;2023-06-01T15:32:40;7.75;;;2.10;;
53207;SDS011;39093;52.788;6.940;2023-06-01T15:35:13;7.72;;;1.83;;
53207;SDS011;39093;52.788;6.940;2023-06-01T15:37:40;3.58;;;1.55;;
53207;SDS011;39093;52.788;6.940;2023-06-01T15:40:12;4.25;;;1.80;;
53207;SDS011;39093;52.788;6.940;2023-06-01T15:45:08;4.00;;;1.75;;
53207;SDS011;39093;52.788;6.940;2023-06-01T15:47:36;6.63;;;1.33;;
53207;SDS011;39093;52.788;6.940;2023-06-01T15:50:03;3.22;;;1.55;;
53207;SDS011;39093;52.788;6.940;2023-06-01T15:52:31;9.18;;;1.75;;
53207;SDS011;39093;52.788;6.940;2023-06-01T15:54:58;5.45;;;1.48;;
53207;SDS011;39093;52.788;6.940;2023-06-01T15:57:25;5.18;;;1.42;;
53207;SDS011;39093;52.788;6.940;2023-06-01T15:59:57;6.13;;;1.58;;
53207;SDS011;39093;52.788;6.940;2023-06-01T16:02:24;8.30;;;1.42;;
53207;SDS011;39093;52.788;6.940;2023-06-01T16:04:51;6.80;;;1.85;;
53207;SDS011;39093;52.788;6.940;2023-06-01T16:07:18;4.82;;;1.38;;
53207;SDS011;39093;52.788;6.940;2023-06-01T16:09:44;5.53;;;1.50;;
53207;SDS011;39093;52.788;6.940;2023-06-01T16:12:14;9.02;;;1.23;;
53207;SDS011;39093;52.788;6.940;2023-06-01T16:14:41;3.90;;;1.27;;
53207;SDS011;39093;52.788;6.940;2023-06-01T16:17:12;2.72;;;1.35;;
53207;SDS011;39093;52.788;6.940;2023-06-01T16:19:40;5.93;;;1.63;;
53207;SDS011;39093;52.788;6.940;2023-06-01T16:22:15;3.78;;;1.30;;
53207;SDS011;39093;52.788;6.940;2023-06-01T16:24:42;3.67;;;1.67;;
53207;SDS011;39093;52.788;6.940;2023-06-01T16:27:09;5.22;;;1.17;;
53207;SDS011;39093;52.788;6.940;2023-06-01T16:29:36;4.78;;;1.17;;
53207;SDS011;39093;52.788;6.940;2023-06-01T16:32:05;1.73;;;1.00;;
53207;SDS011;39093;52.788;6.940;2023-06-01T16:34:32;4.30;;;1.10;;
53207;SDS011;39093;52.788;6.940;2023-06-01T16:36:59;1.60;;;0.77;;
53207;SDS011;39093;52.788;6.940;2023-06-01T16:39:26;8.45;;;1.42;;
53207;SDS011;39093;52.788;6.940;2023-06-01T16:41:53;9.73;;;1.27;;
53207;SDS011;39093;52.788;6.940;2023-06-01T16:44:21;3.30;;;1.23;;
53207;SDS011;39093;52.788;6.940;2023-06-01T16:46:48;7.22;;;1.23;;
53207;SDS011;39093;52.788;6.940;2023-06-01T16:49:15;9.57;;;1.30;;
53207;SDS011;39093;52.788;6.940;2023-06-01T16:51:42;2.17;;;0.80;;
53207;SDS011;39093;52.788;6.940;2023-06-01T16:54:09;4.53;;;0.93;;
53207;SDS011;39093;52.788;6.940;2023-06-01T16:56:36;5.07;;;1.08;;
53207;SDS011;39093;52.788;6.940;2023-06-01T16:59:03;3.17;;;1.08;;
53207;SDS011;39093;52.788;6.940;2023-06-01T17:01:29;4.30;;;1.15;;
53207;SDS011;39093;52.788;6.940;2023-06-01T17:03:59;7.47;;;1.30;;
53207;SDS011;39093;52.788;6.940;2023-06-01T17:06:27;4.18;;;1.25;;
53207;SDS011;39093;52.788;6.940;2023-06-01T17:08:54;2.95;;;0.80;;
53207;SDS011;39093;52.788;6.940;2023-06-01T17:11:24;6.38;;;1.25;;
53207;SDS011;39093;52.788;6.940;2023-06-01T17:13:52;4.40;;;1.08;;
53207;SDS011;39093;52.788;6.940;2023-06-01T17:16:27;5.32;;;1.00;;
53207;SDS011;39093;52.788;6.940;2023-06-01T17:18:55;6.15;;;1.02;;
53207;SDS011;39093;52.788;6.940;2023-06-01T17:21:22;8.60;;;1.48;;
53207;SDS011;39093;52.788;6.940;2023-06-01T17:23:51;6.57;;;0.95;;
53207;SDS011;39093;52.788;6.940;2023-06-01T17:26:29;5.50;;;1.13;;
53207;SDS011;39093;52.788;6.940;2023-06-01T17:28:57;7.13;;;1.27;;
53207;SDS011;39093;52.788;6.940;2023-06-01T17:31:24;6.55;;;1.88;;
53207;SDS011;39093;52.788;6.940;2023-06-01T17:33:51;5.28;;;1.38;;
53207;SDS011;39093;52.788;6.940;2023-06-01T17:36:18;5.57;;;1.15;;
53207;SDS011;39093;52.788;6.940;2023-06-01T17:38:49;6.93;;;1.20;;